Time;durP1;ratioP1;P1;durP2;ratioP2;P2;SDS_P1;SDS_P2;PMS_P1;PMS_P2;Temp;Humidity;BMP_temperature;BMP_pressure;BME280_temperature;BME280_humidity;BME280_pressure;Samples;Min_cycle;Max_cycle;Signal;HPM_P1;HPM_P2
2023/09/13 00:00:14;;;;;;;50.83;30.00;;;21.60;99.90;;;;;;7301665;19;20220;-78
2023/09/13 00:02:40;;;;;;;51.53;30.63;;;21.50;99.90;;;;;;7295886;19;20282;-79
2023/09/13 00:05:16;;;;;;;49.70;31.03;;;21.40;99.90;;;;;;7298013;19;20187;-77
2023/09/13 00:07:42;;;;;;;50.10;31.17;;;21.40;99.90;;;;;;7297656;19;20207;-78
2023/09/13 00:10:12;;;;;;;54.73;32.23;;;21.40;99.90;;;;;;7293371;19;20200;-79
2023/09/13 00:12:38;;;;;;;49.27;30.50;;;21.30;99.90;;;;;;7299308;19;20209;-78
2023/09/13 00:15:06;;;;;;;54.53;30.10;;;21.20;99.90;;;;;;7299120;19;20193;-78
2023/09/13 00:17:33;;;;;;;55.50;32.97;;;21.10;99.90;;;;;;7206908;19;2005091;-78
2023/09/13 00:20:03;;;;;;;55.17;31.47;;;21.00;99.90;;;;;;7301385;19;20184;-79
2023/09/13 00:22:30;;;;;;;51.87;31.53;;;21.00;99.90;;;;;;7298217;19;20188;-78
2023/09/13 00:25:00;;;;;;;54.97;33.03;;;20.90;99.90;;;;;;7295460;19;20216;-79
2023/09/13 00:27:26;;;;;;;56.93;32.13;;;20.90;99.90;;;;;;7272583;19;20190;-78
2023/09/13 00:29:51;;;;;;;57.30;34.37;;;20.80;99.90;;;;;;7298761;19;20197;-79
2023/09/13 00:32:17;;;;;;;59.80;34.23;;;20.80;99.90;;;;;;7318125;19;20224;-78
2023/09/13 00:34:44;;;;;;;56.77;33.70;;;20.80;99.90;;;;;;7301667;19;20188;-79
2023/09/13 00:37:10;;;;;;;58.27;33.43;;;20.70;99.90;;;;;;7279166;19;20185;-78
2023/09/13 00:39:37;;;;;;;61.33;35.10;;;20.80;99.90;;;;;;7296401;19;20650;-79
2023/09/13 00:42:09;;;;;;;57.37;34.40;;;20.70;99.90;;;;;;7304494;19;20197;-79
2023/09/13 00:44:36;;;;;;;60.10;34.53;;;20.70;99.90;;;;;;7306293;19;20253;-80
2023/09/13 00:47:04;;;;;;;70.67;37.20;;;20.70;99.90;;;;;;7295412;19;20664;-79
2023/09/13 00:49:33;;;;;;;67.50;36.83;;;20.60;99.90;;;;;;7303382;19;20228;-80
2023/09/13 00:52:01;;;;;;;67.37;37.80;;;20.60;99.90;;;;;;7297979;19;20277;-79
2023/09/13 00:54:28;;;;;;;67.67;38.20;;;20.60;99.90;;;;;;7298999;19;20183;-78
2023/09/13 00:56:55;;;;;;;66.23;37.47;;;20.60;99.90;;;;;;7286070;19;20219;-79
2023/09/13 00:59:24;;;;;;;73.30;39.57;;;20.50;99.90;;;;;;7304372;19;20202;-79
2023/09/13 01:01:51;;;;;;;65.57;36.53;;;20.50;99.90;;;;;;7316448;19;20267;-78
2023/09/13 01:04:18;;;;;;;69.03;39.13;;;20.50;99.90;;;;;;7320144;19;20220;-79
2023/09/13 01:06:45;;;;;;;68.60;36.73;;;20.50;99.90;;;;;;7295831;19;20225;-78
2023/09/13 01:09:20;;;;;;;65.57;38.07;;;20.40;99.90;;;;;;7256577;19;20185;-78
2023/09/13 01:11:48;;;;;;;65.53;36.10;;;20.20;99.90;;;;;;7286533;19;20586;-78
2023/09/13 01:14:16;;;;;;;59.77;34.00;;;20.20;99.90;;;;;;7299558;19;20201;-79
2023/09/13 01:16:52;;;;;;;57.57;33.00;;;20.20;99.90;;;;;;7299042;19;20204;-80
2023/09/13 01:19:46;;;;;;;52.73;29.33;;;20.20;99.90;;;;;;7296792;19;20181;-78
2023/09/13 01:22:50;;;;;;;50.27;29.27;;;20.10;99.90;;;;;;7253434;19;20205;-78
2023/09/13 01:25:45;;;;;;;49.70;27.33;;;20.10;99.90;;;;;;7190596;19;2004361;-80
2023/09/13 01:28:31;;;;;;;52.60;27.40;;;20.10;99.90;;;;;;7195476;19;2004441;-79
2023/09/13 01:30:58;;;;;;;45.77;24.80;;;20.10;99.90;;;;;;7193618;19;2004435;-78
2023/09/13 01:33:24;;;;;;;47.27;25.53;;;20.10;99.90;;;;;;7296675;19;20201;-78
2023/09/13 01:35:51;;;;;;;47.77;25.53;;;20.10;99.90;;;;;;7321375;19;20192;-79
2023/09/13 01:38:18;;;;;;;45.60;25.60;;;20.10;99.90;;;;;;7306250;19;20183;-79
2023/09/13 01:40:49;;;;;;;41.60;23.53;;;20.10;99.90;;;;;;7306276;19;20190;-80
2023/09/13 01:43:19;;;;;;;40.00;23.20;;;20.10;99.90;;;;;;7305419;19;20234;-77
2023/09/13 01:45:47;;;;;;;40.67;22.90;;;20.10;99.90;;;;;;7299773;19;20289;-78
2023/09/13 01:48:18;;;;;;;38.83;21.63;;;20.10;99.90;;;;;;7302276;19;21206;-79
2023/09/13 01:50:48;;;;;;;41.43;22.40;;;20.20;99.90;;;;;;7303120;19;20202;-78
2023/09/13 01:53:14;;;;;;;37.80;21.23;;;20.30;99.90;;;;;;7297346;19;20198;-78
2023/09/13 01:55:41;;;;;;;39.77;21.87;;;20.40;99.90;;;;;;7300535;19;20275;-78
2023/09/13 01:58:06;;;;;;;38.73;21.93;;;20.40;99.90;;;;;;7295070;19;20216;-80
2023/09/13 02:00:32;;;;;;;40.90;22.17;;;20.40;99.90;;;;;;7291450;19;20392;-78
2023/09/13 02:02:59;;;;;;;38.93;21.10;;;20.50;99.90;;;;;;7300541;19;20258;-79
2023/09/13 02:05:26;;;;;;;37.77;20.97;;;20.60;99.90;;;;;;7296164;19;20203;-78
2023/09/13 02:07:52;;;;;;;37.07;21.80;;;20.60;99.90;;;;;;7295190;19;20191;-77
2023/09/13 02:10:18;;;;;;;42.80;21.13;;;20.60;99.90;;;;;;7319944;19;20265;-79
2023/09/13 02:12:45;;;;;;;37.47;21.17;;;20.50;99.90;;;;;;7301861;19;20241;-78
2023/09/13 02:15:12;;;;;;;39.70;21.73;;;20.60;99.90;;;;;;7304239;19;20199;-78
2023/09/13 02:17:39;;;;;;;40.40;22.77;;;20.60;99.90;;;;;;7301685;19;20199;-78
2023/09/13 02:20:07;;;;;;;38.83;22.90;;;20.50;99.90;;;;;;7299953;19;20189;-78
2023/09/13 02:22:34;;;;;;;44.10;23.63;;;20.40;99.90;;;;;;7301662;19;20187;-78
2023/09/13 02:25:04;;;;;;;45.80;24.77;;;20.40;99.90;;;;;;7301968;19;20198;-78
2023/09/13 02:27:34;;;;;;;45.97;25.93;;;20.40;99.90;;;;;;7298223;19;20187;-78
2023/09/13 02:30:06;;;;;;;45.30;25.27;;;20.40;99.90;;;;;;7290925;19;20665;-79
2023/09/13 02:32:33;;;;;;;47.03;26.50;;;20.30;99.90;;;;;;7298736;19;20207;-79
2023/09/13 02:35:11;;;;;;;53.60;27.50;;;20.40;99.90;;;;;;7296309;19;20237;-77
2023/09/13 02:37:48;;;;;;;55.20;28.27;;;20.40;99.90;;;;;;7300339;19;20203;-79
2023/09/13 02:40:14;;;;;;;59.03;29.67;;;20.40;99.90;;;;;;7297168;19;20194;-77
2023/09/13 02:42:40;;;;;;;60.70;29.70;;;20.30;99.90;;;;;;7302373;19;20186;-78
2023/09/13 02:45:09;;;;;;;57.97;29.33;;;20.30;99.90;;;;;;7301836;19;20204;-78
2023/09/13 02:47:35;;;;;;;58.50;30.30;;;20.20;99.90;;;;;;7300050;19;20197;-79
2023/09/13 02:50:02;;;;;;;60.63;30.80;;;20.20;99.90;;;;;;7297175;19;20197;-78
2023/09/13 02:52:32;;;;;;;63.53;30.83;;;20.20;99.90;;;;;;7297410;19;21199;-80
2023/09/13 02:54:59;;;;;;;60.00;29.87;;;20.00;99.90;;;;;;7300234;19;20208;-79
2023/09/13 02:57:26;;;;;;;54.33;29.00;;;20.00;99.90;;;;;;7301113;19;20195;-79
2023/09/13 02:59:53;;;;;;;59.33;30.07;;;20.10;99.90;;;;;;7299684;19;20650;-79
2023/09/13 03:02:21;;;;;;;61.43;31.43;;;20.10;99.90;;;;;;7324394;19;20218;-77
2023/09/13 03:04:54;;;;;;;59.03;29.77;;;20.20;99.90;;;;;;7301603;19;20182;-77
2023/09/13 03:07:22;;;;;;;61.60;30.93;;;20.10;99.90;;;;;;7277673;19;20835;-78
2023/09/13 03:09:58;;;;;;;61.47;31.53;;;20.00;99.90;;;;;;7306931;19;20895;-79
2023/09/13 03:12:28;;;;;;;59.40;30.43;;;19.90;99.90;;;;;;7294999;19;20200;-79
2023/09/13 03:14:57;;;;;;;66.30;32.00;;;19.80;99.90;;;;;;7296329;19;20275;-79
2023/09/13 03:17:26;;;;;;;66.43;30.93;;;19.80;99.90;;;;;;7301151;19;20261;-79
2023/09/13 03:19:54;;;;;;;64.73;32.07;;;19.70;99.90;;;;;;7294323;19;20286;-77
2023/09/13 03:22:21;;;;;;;69.73;32.73;;;19.70;99.90;;;;;;7290334;19;20197;-77
2023/09/13 03:24:53;;;;;;;65.37;31.80;;;19.60;99.90;;;;;;7318742;19;20227;-80
2023/09/13 03:27:19;;;;;;;67.50;31.37;;;19.70;99.90;;;;;;7301381;19;20197;-79
2023/09/13 03:29:46;;;;;;;63.67;31.83;;;19.80;99.90;;;;;;7301958;19;20188;-78
2023/09/13 03:32:14;;;;;;;64.40;31.47;;;19.90;99.90;;;;;;7279596;19;20189;-79
2023/09/13 03:34:43;;;;;;;64.87;30.13;;;19.90;99.90;;;;;;7295104;19;20200;-79
2023/09/13 03:37:14;;;;;;;62.20;31.20;;;20.00;99.90;;;;;;7301299;19;20212;-77
2023/09/13 03:39:42;;;;;;;61.83;29.67;;;20.00;99.90;;;;;;7298549;19;20189;-79
2023/09/13 03:42:15;;;;;;;62.13;30.87;;;20.10;99.90;;;;;;7299017;19;20201;-79
2023/09/13 03:44:44;;;;;;;61.37;30.77;;;20.20;99.90;;;;;;7301366;19;20214;-77
2023/09/13 03:47:11;;;;;;;58.37;30.30;;;20.20;99.90;;;;;;7299034;19;20210;-79
2023/09/13 03:49:45;;;;;;;54.87;29.17;;;20.20;99.90;;;;;;7300035;19;20299;-78
2023/09/13 03:52:11;;;;;;;59.97;29.53;;;20.20;99.90;;;;;;7299477;19;20229;-79
2023/09/13 03:54:39;;;;;;;59.83;30.73;;;20.10;99.90;;;;;;7298833;19;20222;-78
2023/09/13 03:57:04;;;;;;;59.90;31.07;;;20.20;99.90;;;;;;7297319;19;20191;-77
2023/09/13 03:59:31;;;;;;;55.97;30.23;;;20.30;99.90;;;;;;7295609;19;20207;-77
2023/09/13 04:01:57;;;;;;;56.93;29.43;;;20.30;99.90;;;;;;7297241;19;20192;-77
2023/09/13 04:04:24;;;;;;;55.47;30.47;;;20.30;99.90;;;;;;7300276;19;20217;-77
2023/09/13 04:06:50;;;;;;;56.17;30.50;;;20.40;99.90;;;;;;7323380;19;20337;-78
2023/09/13 04:09:19;;;;;;;58.47;31.03;;;20.40;99.90;;;;;;7301291;19;20212;-79
2023/09/13 04:11:46;;;;;;;53.50;30.43;;;20.40;99.90;;;;;;7296775;19;20198;-78
2023/09/13 04:14:14;;;;;;;58.30;30.80;;;20.40;99.90;;;;;;7297870;19;20198;-78
2023/09/13 04:16:46;;;;;;;59.37;31.57;;;20.40;99.90;;;;;;7278098;19;20187;-80
2023/09/13 04:19:12;;;;;;;60.80;31.13;;;20.30;99.90;;;;;;7298217;19;20192;-77
2023/09/13 04:21:39;;;;;;;58.37;31.57;;;20.20;99.90;;;;;;7299566;19;20195;-76
2023/09/13 04:24:08;;;;;;;58.57;31.57;;;20.30;99.90;;;;;;7288299;19;20198;-78
2023/09/13 04:26:33;;;;;;;57.13;30.43;;;20.30;99.90;;;;;;7296022;19;20190;-78
2023/09/13 04:29:00;;;;;;;60.00;32.20;;;20.40;99.90;;;;;;7299476;19;20192;-77
2023/09/13 04:31:31;;;;;;;59.13;32.90;;;20.50;99.90;;;;;;7293211;19;20191;-76
2023/09/13 04:33:57;;;;;;;57.40;31.70;;;20.60;99.90;;;;;;7294920;19;20548;-77
2023/09/13 04:36:29;;;;;;;57.87;33.13;;;20.50;99.90;;;;;;7297671;19;20218;-77
2023/09/13 04:38:58;;;;;;;56.50;32.40;;;20.50;99.90;;;;;;7296906;19;20274;-77
2023/09/13 04:41:25;;;;;;;54.17;31.43;;;20.30;99.90;;;;;;7296295;19;20186;-76
2023/09/13 04:43:50;;;;;;;59.37;32.50;;;20.30;99.90;;;;;;7300808;19;20190;-76
2023/09/13 04:46:19;;;;;;;59.00;33.30;;;20.30;99.90;;;;;;7318004;19;20193;-77
2023/09/13 04:48:47;;;;;;;56.40;32.90;;;20.30;99.90;;;;;;7288753;19;21000;-75
2023/09/13 04:51:13;;;;;;;60.43;33.73;;;20.30;99.90;;;;;;7298872;19;20215;-77
2023/09/13 04:53:41;;;;;;;57.40;33.30;;;20.40;99.90;;;;;;7297544;19;20210;-78
2023/09/13 04:56:08;;;;;;;58.73;32.93;;;20.40;99.90;;;;;;7297869;19;20254;-77
2023/09/13 04:58:39;;;;;;;59.83;33.67;;;20.40;99.90;;;;;;7273783;19;20200;-75
2023/09/13 05:01:05;;;;;;;61.17;34.93;;;20.40;99.90;;;;;;7293166;19;20185;-76
2023/09/13 05:03:31;;;;;;;60.93;35.40;;;20.40;99.90;;;;;;7278451;19;20181;-76
2023/09/13 05:06:00;;;;;;;63.63;36.10;;;20.40;99.90;;;;;;7296707;19;20187;-77
2023/09/13 05:08:28;;;;;;;64.93;37.70;;;20.40;99.90;;;;;;7297998;19;20235;-76
2023/09/13 05:10:55;;;;;;;66.40;36.50;;;20.30;99.90;;;;;;7304762;19;20189;-76
2023/09/13 05:13:23;;;;;;;67.13;36.43;;;20.40;99.90;;;;;;7328669;19;20186;-76
2023/09/13 05:15:48;;;;;;;67.57;37.27;;;20.30;99.90;;;;;;7298919;19;20206;-82
2023/09/13 05:18:16;;;;;;;64.73;36.60;;;20.20;99.90;;;;;;7289459;19;20194;-77
2023/09/13 05:20:41;;;;;;;66.83;37.77;;;20.20;99.90;;;;;;7287402;19;20629;-79
2023/09/13 05:23:08;;;;;;;67.27;38.70;;;20.30;99.90;;;;;;7289318;19;20197;-77
2023/09/13 05:25:34;;;;;;;66.53;38.50;;;20.40;99.90;;;;;;7291560;19;20248;-78
2023/09/13 05:28:00;;;;;;;61.73;36.97;;;20.40;99.90;;;;;;7293311;19;20583;-78
2023/09/13 05:30:30;;;;;;;67.03;39.63;;;20.50;99.90;;;;;;7287299;19;20195;-78
2023/09/13 05:32:56;;;;;;;70.20;39.27;;;20.60;99.90;;;;;;7290481;19;20194;-77
2023/09/13 05:35:22;;;;;;;73.40;41.53;;;20.60;99.90;;;;;;7285726;19;20657;-79
2023/09/13 05:37:48;;;;;;;76.97;40.80;;;20.70;99.90;;;;;;7318550;19;20202;-77
2023/09/13 05:40:14;;;;;;;75.43;41.97;;;20.70;99.90;;;;;;7288694;19;20191;-78
2023/09/13 05:42:40;;;;;;;77.73;41.73;;;20.70;99.90;;;;;;7286019;19;20197;-78
2023/09/13 05:45:07;;;;;;;75.20;40.80;;;20.60;99.90;;;;;;7296132;19;20196;-77
2023/09/13 05:47:33;;;;;;;74.70;41.70;;;20.60;99.90;;;;;;7286256;19;20188;-76
2023/09/13 05:49:59;;;;;;;80.20;41.10;;;20.70;99.90;;;;;;7292590;19;20233;-78
2023/09/13 05:52:25;;;;;;;78.37;42.50;;;20.70;99.90;;;;;;7292367;19;20195;-76
2023/09/13 05:54:51;;;;;;;76.30;41.73;;;20.70;99.90;;;;;;7296391;19;20183;-77
2023/09/13 05:57:17;;;;;;;76.37;41.70;;;20.70;99.90;;;;;;7310594;19;20623;-77
2023/09/13 05:59:43;;;;;;;71.60;42.23;;;20.70;99.90;;;;;;7298490;19;20573;-76
2023/09/13 06:02:10;;;;;;;79.70;43.30;;;20.80;99.90;;;;;;7288244;19;21394;-76
2023/09/13 06:04:36;;;;;;;77.83;42.40;;;20.90;99.90;;;;;;7290608;19;20740;-76
2023/09/13 06:07:02;;;;;;;77.13;41.83;;;21.00;99.90;;;;;;7290456;19;20555;-76
2023/09/13 06:09:30;;;;;;;71.33;41.47;;;21.00;99.90;;;;;;7285485;19;20192;-78
2023/09/13 06:11:57;;;;;;;70.93;39.70;;;20.90;99.90;;;;;;7288892;19;20266;-78
2023/09/13 06:14:23;;;;;;;60.47;37.63;;;20.90;99.90;;;;;;7292668;19;20272;-78
2023/09/13 06:16:50;;;;;;;67.53;39.27;;;20.90;99.90;;;;;;7309568;19;20189;-78
2023/09/13 06:19:18;;;;;;;64.43;36.07;;;21.00;99.90;;;;;;7295267;19;20187;-81
2023/09/13 06:21:47;;;;;;;61.70;36.20;;;21.20;99.90;;;;;;7303910;19;20196;-80
2023/09/13 06:24:15;;;;;;;61.73;35.60;;;21.20;99.90;;;;;;7284879;19;20184;-80
2023/09/13 06:26:47;;;;;;;56.50;34.40;;;21.20;99.90;;;;;;7296015;19;20187;-78
2023/09/13 06:29:18;;;;;;;59.03;33.77;;;21.20;99.90;;;;;;7303392;19;20192;-79
2023/09/13 06:31:44;;;;;;;51.17;31.27;;;21.30;99.90;;;;;;7304217;19;20195;-78
2023/09/13 06:34:14;;;;;;;49.30;29.63;;;21.40;99.90;;;;;;7307519;19;20183;-81
2023/09/13 06:36:43;;;;;;;49.27;29.00;;;21.50;99.90;;;;;;7270453;19;20235;-78
2023/09/13 06:39:14;;;;;;;47.93;27.80;;;21.40;99.90;;;;;;7306020;19;20221;-78
2023/09/13 06:41:44;;;;;;;52.27;27.50;;;21.50;99.90;;;;;;7302556;19;20267;-78
2023/09/13 06:44:11;;;;;;;45.57;26.83;;;21.60;99.90;;;;;;7306154;19;20213;-78
2023/09/13 06:46:42;;;;;;;38.27;23.43;;;21.90;99.90;;;;;;7284051;19;20195;-80
2023/09/13 06:49:14;;;;;;;44.57;24.17;;;21.90;99.90;;;;;;7271948;19;20229;-78
2023/09/13 06:51:43;;;;;;;36.40;22.53;;;21.90;99.90;;;;;;7301775;19;20228;-80
2023/09/13 06:54:09;;;;;;;38.27;22.57;;;21.90;99.90;;;;;;7298230;19;20271;-78
2023/09/13 06:56:45;;;;;;;43.23;23.50;;;21.90;99.90;;;;;;7302497;19;20197;-80
2023/09/13 06:59:14;;;;;;;38.10;21.93;;;21.70;99.90;;;;;;7301623;19;20251;-78
2023/09/13 07:01:47;;;;;;;36.77;22.00;;;21.50;99.90;;;;;;7303348;19;20183;-79
2023/09/13 07:04:16;;;;;;;38.40;20.83;;;21.30;99.90;;;;;;7270538;19;20223;-78
2023/09/13 07:06:42;;;;;;;40.37;21.03;;;21.10;99.90;;;;;;7305210;19;20208;-77
2023/09/13 07:09:15;;;;;;;36.97;21.10;;;21.20;99.90;;;;;;7285680;19;20195;-80
2023/09/13 07:11:56;;;;;;;35.87;20.67;;;21.30;99.90;;;;;;7307003;19;20196;-79
2023/09/13 07:14:27;;;;;;;32.90;19.23;;;21.40;99.90;;;;;;7257162;19;20200;-80
2023/09/13 07:17:00;;;;;;;27.90;18.37;;;21.40;99.90;;;;;;7330082;19;20196;-80
2023/09/13 07:19:31;;;;;;;27.00;15.77;;;21.40;99.90;;;;;;7297796;19;20600;-83
2023/09/13 07:22:05;;;;;;;31.13;16.77;;;21.50;99.90;;;;;;7309484;19;20178;-83
2023/09/13 07:24:39;;;;;;;29.10;15.07;;;21.30;99.90;;;;;;7296282;19;20197;-82
2023/09/13 07:27:06;;;;;;;26.03;14.47;;;21.30;99.90;;;;;;7305839;19;20192;-79
2023/09/13 07:29:49;;;;;;;24.57;14.17;;;21.40;99.90;;;;;;7329927;19;20595;-81
2023/09/13 07:32:19;;;;;;;26.13;12.87;;;21.50;99.90;;;;;;7307498;19;20177;-82
2023/09/13 07:34:57;;;;;;;20.03;11.67;;;21.60;99.90;;;;;;7275938;19;20179;-81
2023/09/13 07:37:26;;;;;;;25.20;11.17;;;21.70;99.90;;;;;;7286926;19;20203;-81
2023/09/13 07:39:55;;;;;;;22.37;10.90;;;21.90;99.90;;;;;;7305465;19;20195;-80
2023/09/13 07:42:34;;;;;;;21.87;10.00;;;21.80;99.90;;;;;;7317525;19;20246;-81
2023/09/13 07:45:03;;;;;;;24.87;8.53;;;22.00;99.90;;;;;;7325326;19;20540;-81
2023/09/13 07:47:29;;;;;;;19.47;9.20;;;22.10;99.90;;;;;;7300160;19;20197;-80
2023/09/13 07:49:59;;;;;;;17.30;8.30;;;22.30;99.90;;;;;;7294325;19;20185;-81
2023/09/13 07:52:27;;;;;;;17.57;7.63;;;22.30;99.90;;;;;;7299892;19;20192;-81
2023/09/13 07:55:01;;;;;;;20.13;7.80;;;22.20;99.90;;;;;;7299625;19;20192;-81
2023/09/13 07:57:28;;;;;;;16.07;7.63;;;21.90;99.90;;;;;;7305143;19;20669;-81
2023/09/13 07:59:55;;;;;;;16.67;7.17;;;21.90;99.90;;;;;;7307372;19;20195;-82
2023/09/13 08:02:24;;;;;;;17.30;7.10;;;22.00;99.90;;;;;;7326732;19;20217;-82
2023/09/13 08:04:53;;;;;;;14.67;6.07;;;22.30;99.90;;;;;;7302669;19;20188;-81
2023/09/13 08:07:19;;;;;;;14.40;4.80;;;22.70;99.90;;;;;;7299511;19;20192;-82
2023/09/13 08:09:46;;;;;;;14.60;5.03;;;23.00;99.90;;;;;;7300830;19;20184;-81
2023/09/13 08:12:13;;;;;;;12.30;4.90;;;23.20;99.90;;;;;;7302406;19;20186;-79
2023/09/13 08:14:38;;;;;;;16.13;4.63;;;23.10;99.90;;;;;;7294395;19;20208;-80
2023/09/13 08:17:04;;;;;;;12.97;4.30;;;23.30;99.90;;;;;;7296824;19;20185;-81
2023/09/13 08:19:31;;;;;;;14.37;4.27;;;23.40;99.90;;;;;;7301482;19;20192;-82
2023/09/13 08:21:58;;;;;;;16.73;4.37;;;23.50;99.90;;;;;;7300210;19;20196;-81
2023/09/13 08:24:27;;;;;;;13.67;4.20;;;23.20;99.90;;;;;;7298297;19;20193;-82
2023/09/13 08:26:55;;;;;;;18.43;5.87;;;23.20;99.90;;;;;;7323776;19;20960;-80
2023/09/13 08:29:24;;;;;;;16.13;3.83;;;23.20;99.90;;;;;;7309694;19;20180;-81
2023/09/13 08:31:52;;;;;;;20.13;3.63;;;23.00;99.90;;;;;;7329176;19;20181;-82
2023/09/13 08:34:23;;;;;;;16.47;3.80;;;22.80;99.90;;;;;;7332289;19;20291;-83
2023/09/13 08:36:58;;;;;;;15.53;3.20;;;22.30;99.90;;;;;;7312948;19;20197;-81
2023/09/13 08:39:50;;;;;;;10.17;2.77;;;22.60;99.90;;;;;;7281054;19;20361;-82
2023/09/13 08:42:23;;;;;;;14.50;3.13;;;22.90;99.90;;;;;;7300036;19;20200;-82
2023/09/13 08:44:51;;;;;;;14.80;2.83;;;23.50;99.90;;;;;;7303210;19;20225;-82
2023/09/13 08:47:36;;;;;;;14.60;3.50;;;23.90;99.90;;;;;;7305222;19;20188;-82
2023/09/13 08:50:09;;;;;;;11.53;2.60;;;24.20;99.90;;;;;;7200994;19;2004618;-82
2023/09/13 08:52:38;;;;;;;14.77;2.93;;;25.10;99.90;;;;;;7302190;19;20193;-80
2023/09/13 08:55:06;;;;;;;19.87;7.60;;;25.20;99.90;;;;;;7301354;19;20221;-80
2023/09/13 08:57:36;;;;;;;25.40;9.73;;;24.40;99.90;;;;;;7303416;19;20189;-82
2023/09/13 09:00:08;;;;;;;15.83;3.60;;;24.20;99.90;;;;;;7304948;19;20193;-81
2023/09/13 09:02:42;;;;;;;15.50;3.80;;;24.30;99.90;;;;;;7303900;19;20221;-80
2023/09/13 09:05:13;;;;;;;16.77;4.67;;;24.50;99.90;;;;;;7302520;19;20200;-82
2023/09/13 09:07:45;;;;;;;17.97;5.00;;;24.90;99.90;;;;;;7304365;19;20189;-82
2023/09/13 09:10:17;;;;;;;18.77;5.00;;;25.20;99.90;;;;;;7325672;19;20200;-82
2023/09/13 09:12:50;;;;;;;20.02;5.57;;;25.70;99.90;;;;;;7254663;19;20181;-82
2023/09/13 09:15:18;;;;;;;18.27;5.82;;;25.80;99.90;;;;;;7303841;19;20193;-81
2023/09/13 09:17:48;;;;;;;18.15;5.97;;;26.20;99.90;;;;;;7298894;19;20896;-79
2023/09/13 09:20:14;;;;;;;19.98;6.35;;;26.50;99.90;;;;;;7302670;19;20184;-80
2023/09/13 09:22:43;;;;;;;14.68;5.45;;;26.50;99.90;;;;;;7308197;19;20321;-82
2023/09/13 09:25:12;;;;;;;14.75;5.45;;;26.20;99.90;;;;;;7302776;19;20210;-82
2023/09/13 09:27:45;;;;;;;15.55;5.50;;;26.30;99.90;;;;;;7309620;19;20192;-82
2023/09/13 09:30:15;;;;;;;15.50;5.82;;;26.10;99.90;;;;;;7307263;19;20225;-80
2023/09/13 09:32:50;;;;;;;16.52;6.28;;;25.90;99.90;;;;;;7308511;19;20193;-80
2023/09/13 09:35:19;;;;;;;18.73;6.00;;;26.00;99.90;;;;;;7353054;19;20196;-81
2023/09/13 09:37:45;;;;;;;16.77;6.15;;;25.90;99.90;;;;;;7307736;19;20499;-80
2023/09/13 09:40:15;;;;;;;15.57;6.70;;;25.80;99.90;;;;;;7304982;19;20201;-83
2023/09/13 09:42:50;;;;;;;18.27;6.27;;;25.90;99.90;;;;;;7310101;19;20190;-82
2023/09/13 09:45:18;;;;;;;17.63;5.47;;;25.90;99.90;;;;;;7307860;19;20686;-82
2023/09/13 09:47:58;;;;;;;12.23;3.80;;;25.90;99.90;;;;;;7305455;19;20181;-80
2023/09/13 09:50:30;;;;;;;13.13;3.75;;;25.90;99.90;;;;;;7310349;19;20193;-80
2023/09/13 09:53:22;;;;;;;16.88;3.90;;;26.30;99.90;;;;;;7306201;19;20185;-80
2023/09/13 09:55:52;;;;;;;11.02;3.30;;;26.30;99.90;;;;;;7304278;19;20200;-81
2023/09/13 09:58:21;;;;;;;9.82;3.47;;;26.70;99.90;;;;;;7306270;19;20185;-81
2023/09/13 10:00:53;;;;;;;12.50;3.35;;;27.20;99.90;;;;;;7304870;19;20227;-78
2023/09/13 10:03:35;;;;;;;12.57;2.75;;;28.30;99.90;;;;;;7206254;19;2004627;-78
2023/09/13 10:06:10;;;;;;;12.10;2.70;;;29.20;99.90;;;;;;7301319;19;20185;-82
2023/09/13 10:08:49;;;;;;;13.80;3.15;;;29.70;99.90;;;;;;7286824;19;20209;-81
2023/09/13 10:11:22;;;;;;;12.20;2.97;;;29.40;99.90;;;;;;7307916;19;20203;-81
2023/09/13 10:13:55;;;;;;;11.30;2.75;;;28.80;99.90;;;;;;7290980;19;20196;-78
2023/09/13 10:16:29;;;;;;;13.93;2.92;;;27.90;99.90;;;;;;7277552;19;20193;-81
2023/09/13 10:19:02;;;;;;;8.75;2.42;;;26.50;99.90;;;;;;7283628;19;20184;-80
2023/09/13 10:21:30;;;;;;;13.07;2.70;;;25.00;99.90;;;;;;7296851;19;20185;-81
2023/09/13 10:24:10;;;;;;;16.57;3.20;;;24.20;99.90;;;;;;7290003;19;20217;-81
2023/09/13 10:26:39;;;;;;;15.40;2.90;;;24.20;99.90;;;;;;7308023;19;20201;-78
2023/09/13 10:29:39;;;;;;;12.13;2.40;;;25.20;99.90;;;;;;7330482;19;20192;-81
2023/09/13 10:32:29;;;;;;;10.83;2.40;;;25.60;99.90;;;;;;7203066;19;2004497;-77
2023/09/13 10:35:01;;;;;;;10.33;2.47;;;24.70;99.90;;;;;;7286722;19;20192;-78
2023/09/13 10:37:51;;;;;;;12.37;2.57;;;24.40;99.90;;;;;;7306964;19;20249;-78
2023/09/13 10:40:50;;;;;;;12.00;2.97;;;23.80;99.90;;;;;;7307169;19;20197;-80
2023/09/13 10:43:22;;;;;;;13.37;2.53;;;23.60;99.90;;;;;;7171155;19;2005024;-79
2023/09/13 10:45:50;;;;;;;18.37;2.33;;;24.60;99.90;;;;;;7304977;19;20211;-79
2023/09/13 10:48:19;;;;;;;11.07;2.60;;;25.30;99.90;;;;;;7308399;19;20221;-78
2023/09/13 10:50:50;;;;;;;11.05;2.40;;;25.20;99.90;;;;;;7308050;19;20196;-79
2023/09/13 10:53:19;;;;;;;10.15;2.35;;;26.10;99.90;;;;;;7306813;19;20196;-79
2023/09/13 10:55:48;;;;;;;11.52;2.53;;;26.10;99.90;;;;;;7306294;19;20193;-79
2023/09/13 10:58:22;;;;;;;8.20;2.42;;;26.10;99.90;;;;;;7318576;19;20193;-79
2023/09/13 11:00:54;;;;;;;9.07;2.10;;;26.30;99.90;;;;;;7329093;19;20540;-79
2023/09/13 11:03:22;;;;;;;8.20;2.50;;;25.90;99.90;;;;;;7296269;19;20228;-79
2023/09/13 11:05:59;;;;;;;9.40;2.60;;;25.80;99.90;;;;;;7321294;19;20185;-79
2023/09/13 11:08:31;;;;;;;8.10;2.65;;;25.60;99.90;;;;;;7307410;19;20232;-79
2023/09/13 11:11:18;;;;;;;6.63;2.45;;;25.80;99.90;;;;;;7308914;19;20193;-79
2023/09/13 11:13:53;;;;;;;9.45;3.00;;;26.00;99.90;;;;;;7309355;19;20188;-79
2023/09/13 11:16:23;;;;;;;10.20;3.30;;;26.10;99.90;;;;;;7277368;19;20208;-79
2023/09/13 11:19:03;;;;;;;14.20;4.40;;;26.60;99.90;;;;;;7283254;19;20184;-79
2023/09/13 11:22:02;;;;;;;11.68;4.80;;;26.90;99.90;;;;;;7304844;19;20192;-79
2023/09/13 11:24:40;;;;;;;13.60;4.75;;;26.90;99.90;;;;;;7204798;19;2004460;-79
2023/09/13 11:27:20;;;;;;;12.20;3.90;;;27.70;99.90;;;;;;7306806;19;20228;-78
2023/09/13 11:29:51;;;;;;;10.10;4.00;;;27.30;99.90;;;;;;7306728;19;20199;-78
2023/09/13 11:32:26;;;;;;;14.57;4.47;;;26.90;99.90;;;;;;7306369;19;20195;-80
2023/09/13 11:34:57;;;;;;;17.58;4.15;;;27.30;99.90;;;;;;7287054;19;20689;-79
2023/09/13 11:37:25;;;;;;;9.35;3.95;;;28.30;99.90;;;;;;7288267;19;20189;-81
2023/09/13 11:40:09;;;;;;;9.30;5.00;;;27.20;99.90;;;;;;7307972;19;20192;-82
2023/09/13 11:42:37;;;;;;;9.52;4.90;;;26.50;99.90;;;;;;7288470;19;20197;-84
2023/09/13 11:45:08;;;;;;;13.63;4.20;;;26.60;99.90;;;;;;7294632;19;20329;-82
2023/09/13 11:47:36;;;;;;;10.15;3.78;;;26.60;99.90;;;;;;7289212;19;20188;-82
2023/09/13 11:50:04;;;;;;;9.57;2.90;;;26.10;99.90;;;;;;7278377;19;20741;-81
2023/09/13 11:53:10;;;;;;;7.55;3.45;;;26.50;99.90;;;;;;7287896;19;20195;-83
2023/09/13 11:55:39;;;;;;;5.70;2.67;;;27.00;99.90;;;;;;7186173;19;2004401;-81
2023/09/13 11:58:04;;;;;;;8.52;3.25;;;27.50;99.90;;;;;;7293493;19;20196;-82
2023/09/13 12:00:40;;;;;;;10.35;3.17;;;28.40;99.90;;;;;;7288248;19;20192;-81
2023/09/13 12:03:06;;;;;;;6.93;2.60;;;28.70;99.90;;;;;;7298234;19;20260;-78
2023/09/13 12:05:33;;;;;;;3.83;2.42;;;27.80;99.90;;;;;;7297308;19;20188;-82
2023/09/13 12:08:00;;;;;;;5.90;2.88;;;27.00;99.90;;;;;;7297646;19;20205;-79
2023/09/13 12:10:38;;;;;;;7.30;3.10;;;26.40;99.90;;;;;;7325465;19;20275;-79
2023/09/13 12:13:04;;;;;;;6.60;2.92;;;25.90;99.90;;;;;;7301199;19;20197;-78
2023/09/13 12:15:34;;;;;;;5.03;2.47;;;25.50;99.90;;;;;;7298763;19;20265;-80
2023/09/13 12:18:16;;;;;;;10.15;2.30;;;25.60;99.90;;;;;;7302437;19;20206;-82
2023/09/13 12:20:46;;;;;;;7.03;2.30;;;26.10;99.90;;;;;;7302144;19;20188;-79
2023/09/13 12:23:17;;;;;;;2.47;1.20;;;26.50;99.90;;;;;;7301913;19;20203;-79
2023/09/13 12:25:53;;;;;;;3.70;0.90;;;27.30;99.90;;;;;;7302063;19;20178;-81
2023/09/13 12:28:26;;;;;;;2.65;0.80;;;27.70;99.90;;;;;;7305753;19;20196;-77
2023/09/13 12:31:01;;;;;;;4.07;1.05;;;28.60;99.90;;;;;;7299168;19;20181;-82
2023/09/13 12:33:34;;;;;;;2.97;1.08;;;28.30;99.90;;;;;;7225622;19;2005009;-82
2023/09/13 12:36:10;;;;;;;2.15;0.70;;;27.40;99.90;;;;;;7278914;19;20184;-82
2023/09/13 12:38:42;;;;;;;2.95;0.80;;;27.10;99.90;;;;;;7267576;19;20212;-83
2023/09/13 12:41:29;;;;;;;2.72;0.70;;;26.90;99.90;;;;;;7302390;19;20208;-83
2023/09/13 12:44:02;;;;;;;5.38;0.88;;;27.50;99.90;;;;;;7279846;19;20188;-79
2023/09/13 12:46:29;;;;;;;1.92;0.60;;;27.20;99.90;;;;;;7297687;19;20206;-81